Time;durP1;ratioP1;P1;durP2;ratioP2;P2;SDS_P1;SDS_P2;PMS_P1;PMS_P2;Temp;Humidity;BMP_temperature;BMP_pressure;BME280_temperature;BME280_humidity;BME280_pressure;Samples;Min_cycle;Max_cycle;Signal;HPM_P1;HPM_P2
2023/04/05 00:01:36;;;;;;;10.57;6.00;;;-0.90;99.90;;;;;;5056855;28;20024;-88
2023/04/05 00:04:03;;;;;;;12.85;6.50;;;-1.00;99.90;;;;;;5056564;28;20024;-88
2023/04/05 00:06:30;;;;;;;13.77;6.82;;;-0.90;99.90;;;;;;5073174;28;20164;-88
2023/04/05 00:09:00;;;;;;;10.82;5.78;;;-0.90;99.90;;;;;;5072569;28;20024;-88
2023/04/05 00:11:28;;;;;;;14.00;6.37;;;-1.00;99.90;;;;;;5057024;28;20648;-89
2023/04/05 00:13:55;;;;;;;13.50;6.72;;;-1.00;99.90;;;;;;5056664;28;20024;-88
2023/04/05 00:16:21;;;;;;;12.50;6.60;;;-1.10;99.90;;;;;;5056786;28;20036;-88
2023/04/05 00:18:53;;;;;;;11.10;6.53;;;-1.10;99.90;;;;;;5057079;28;20083;-88
2023/04/05 00:21:22;;;;;;;13.77;6.75;;;-1.00;99.90;;;;;;5072922;28;20446;-88
2023/04/05 00:23:56;;;;;;;18.55;7.40;;;-1.10;99.90;;;;;;5073120;28;20120;-88
2023/04/05 00:26:21;;;;;;;10.05;6.03;;;-1.10;99.90;;;;;;5051467;28;20058;-89
2023/04/05 00:28:52;;;;;;;19.60;6.23;;;-1.10;99.90;;;;;;5072908;28;20025;-88
2023/04/05 00:31:18;;;;;;;9.48;5.82;;;-1.10;99.90;;;;;;5056108;28;20487;-89
2023/04/05 00:33:44;;;;;;;9.45;6.35;;;-1.20;99.90;;;;;;5071948;28;20780;-89
2023/04/05 00:36:12;;;;;;;15.00;6.07;;;-1.20;99.90;;;;;;5089590;28;21031;-88
2023/04/05 00:38:38;;;;;;;8.98;5.60;;;-1.20;99.90;;;;;;5073082;28;20533;-89
2023/04/05 00:41:04;;;;;;;11.32;6.63;;;-1.20;99.90;;;;;;5090108;28;20016;-88
2023/04/05 00:43:29;;;;;;;15.57;6.30;;;-1.30;99.90;;;;;;5056432;28;20537;-88
2023/04/05 00:45:56;;;;;;;10.80;6.20;;;-1.40;99.90;;;;;;5072343;28;20033;-88
2023/04/05 00:48:22;;;;;;;11.55;6.18;;;-1.40;99.90;;;;;;5055844;28;20476;-88
2023/04/05 00:50:49;;;;;;;13.20;6.40;;;-1.50;99.90;;;;;;5056340;28;20476;-88
2023/04/05 00:53:17;;;;;;;12.32;6.55;;;-1.50;99.90;;;;;;5072834;28;20464;-88
2023/04/05 00:55:42;;;;;;;12.32;6.40;;;-1.50;99.90;;;;;;5073732;28;20039;-88
2023/04/05 00:58:09;;;;;;;11.50;6.50;;;-1.50;99.90;;;;;;5072278;28;20092;-88
2023/04/05 01:00:38;;;;;;;11.13;6.55;;;-1.60;99.90;;;;;;5056164;28;20036;-88
2023/04/05 01:03:06;;;;;;;17.92;6.88;;;-1.70;99.90;;;;;;5072617;28;20033;-88
2023/04/05 01:05:41;;;;;;;9.60;5.93;;;-1.80;99.90;;;;;;5055667;28;20047;-88
2023/04/05 01:08:19;;;;;;;16.42;7.30;;;-1.80;99.90;;;;;;5072381;28;20032;-88
2023/04/05 01:10:53;;;;;;;12.80;6.57;;;-1.80;99.90;;;;;;5055194;28;20036;-88
2023/04/05 01:13:20;;;;;;;10.77;6.78;;;-1.80;99.90;;;;;;5089492;28;20034;-88
2023/04/05 01:15:45;;;;;;;10.38;5.57;;;-1.80;99.90;;;;;;5073721;28;20039;-88
2023/04/05 01:18:12;;;;;;;15.70;6.90;;;-1.90;99.90;;;;;;5073099;28;20028;-88
2023/04/05 01:20:44;;;;;;;16.13;6.47;;;-2.00;99.90;;;;;;5072781;28;20036;-89
2023/04/05 01:23:21;;;;;;;16.33;6.57;;;-2.10;99.90;;;;;;5056600;28;20024;-88
2023/04/05 01:26:35;;;;;;;10.90;6.40;;;-2.10;99.90;;;;;;5067418;28;20082;-89
2023/04/05 01:29:31;;;;;;;14.13;6.75;;;-2.20;99.90;;;;;;5058478;28;20043;-88
2023/04/05 01:32:10;;;;;;;11.27;6.78;;;-2.30;99.90;;;;;;5055549;28;20074;-88
2023/04/05 01:34:40;;;;;;;9.95;5.88;;;-2.40;99.90;;;;;;5056299;28;20114;-88
2023/04/05 01:37:11;;;;;;;12.95;6.38;;;-2.40;99.90;;;;;;5075071;28;20027;-89
2023/04/05 01:39:37;;;;;;;14.73;7.03;;;-2.40;99.90;;;;;;5073060;28;20082;-88
2023/04/05 01:42:04;;;;;;;13.20;6.32;;;-2.40;99.90;;;;;;5072362;28;20029;-88
2023/04/05 01:45:09;;;;;;;9.70;6.15;;;-2.50;99.90;;;;;;5059339;28;20138;-88
2023/04/05 01:47:35;;;;;;;12.13;6.20;;;-2.40;99.90;;;;;;5077126;28;20032;-88
2023/04/05 01:50:00;;;;;;;11.57;6.28;;;-2.40;99.90;;;;;;5076375;28;20399;-88
2023/04/05 01:52:26;;;;;;;15.45;6.93;;;-2.50;99.90;;;;;;5058936;28;20037;-88
2023/04/05 01:54:52;;;;;;;12.73;6.40;;;-2.50;99.90;;;;;;5076445;28;20086;-89
2023/04/05 01:57:17;;;;;;;15.52;6.53;;;-2.50;99.90;;;;;;5086117;28;20387;-89
2023/04/05 01:59:44;;;;;;;16.73;7.10;;;-2.60;99.90;;;;;;5076537;28;20029;-88
2023/04/05 02:02:10;;;;;;;14.43;6.80;;;-2.50;99.90;;;;;;5071311;28;20391;-88
2023/04/05 02:04:36;;;;;;;12.32;6.45;;;-2.40;99.90;;;;;;5076909;28;20028;-88
2023/04/05 02:07:02;;;;;;;15.35;6.35;;;-2.50;99.90;;;;;;5075566;28;20039;-88
2023/04/05 02:09:28;;;;;;;10.70;6.47;;;-2.50;99.90;;;;;;5075766;28;20033;-88
2023/04/05 02:11:55;;;;;;;13.25;6.70;;;-2.50;99.90;;;;;;5058402;28;20041;-88
2023/04/05 02:14:20;;;;;;;16.15;6.90;;;-2.50;99.90;;;;;;5075853;28;20039;-88
2023/04/05 02:16:46;;;;;;;12.82;6.75;;;-2.50;99.90;;;;;;5076189;28;20036;-88
2023/04/05 02:19:14;;;;;;;12.55;6.47;;;-2.50;99.90;;;;;;5075611;28;20111;-88
2023/04/05 02:21:40;;;;;;;11.73;7.05;;;-2.50;99.90;;;;;;5075859;28;20085;-88
2023/04/05 02:24:06;;;;;;;14.68;7.15;;;-2.50;99.90;;;;;;5075629;28;20033;-88
2023/04/05 02:26:32;;;;;;;17.33;8.10;;;-2.50;99.90;;;;;;5058910;28;20074;-88
2023/04/05 02:28:58;;;;;;;19.45;7.18;;;-2.50;99.90;;;;;;5074962;28;20032;-88
2023/04/05 02:31:24;;;;;;;19.52;7.72;;;-2.50;99.90;;;;;;5058497;28;20028;-89
2023/04/05 02:33:50;;;;;;;15.77;7.25;;;-2.60;99.90;;;;;;5075013;28;20135;-88
2023/04/05 02:36:15;;;;;;;17.08;7.88;;;-2.60;99.90;;;;;;5075593;28;20097;-88
2023/04/05 02:38:41;;;;;;;17.20;7.28;;;-2.60;99.90;;;;;;5075435;28;20119;-88
2023/04/05 02:41:10;;;;;;;24.40;8.63;;;-2.60;99.90;;;;;;5075231;28;20395;-87
2023/04/05 02:43:37;;;;;;;19.90;8.20;;;-2.50;99.90;;;;;;5059037;28;20039;-88
2023/04/05 02:46:03;;;;;;;14.25;7.65;;;-2.50;99.90;;;;;;5059337;28;20028;-88
2023/04/05 02:48:30;;;;;;;15.60;7.50;;;-2.60;99.90;;;;;;5060134;28;20028;-88
2023/04/05 02:50:56;;;;;;;9.65;6.25;;;-2.70;99.90;;;;;;5069121;28;20013;-88
2023/04/05 02:53:22;;;;;;;11.82;6.93;;;-2.80;99.90;;;;;;5095276;28;20051;-88
2023/04/05 02:55:56;;;;;;;15.77;7.25;;;-2.90;99.90;;;;;;5094609;28;20044;-87
2023/04/05 02:58:23;;;;;;;12.25;7.15;;;-3.00;99.90;;;;;;5095864;28;20027;-87
2023/04/05 03:00:50;;;;;;;10.93;6.72;;;-3.00;99.90;;;;;;5060866;28;20040;-88
2023/04/05 03:03:20;;;;;;;13.48;6.78;;;-3.00;99.90;;;;;;5076291;28;20040;-88
2023/04/05 03:05:48;;;;;;;14.52;7.57;;;-3.00;99.90;;;;;;5075365;28;20024;-88
2023/04/05 03:08:22;;;;;;;14.60;7.57;;;-3.10;99.90;;;;;;5074260;28;20431;-88
2023/04/05 03:10:57;;;;;;;11.80;7.17;;;-3.10;99.90;;;;;;5070880;28;20032;-88
2023/04/05 03:13:23;;;;;;;14.43;7.40;;;-3.20;99.90;;;;;;5056561;28;20040;-88
2023/04/05 03:15:54;;;;;;;11.93;7.57;;;-3.20;99.90;;;;;;5075054;28;20029;-88
2023/04/05 03:18:24;;;;;;;11.48;6.63;;;-3.30;99.90;;;;;;5057772;28;20033;-88
2023/04/05 03:20:57;;;;;;;14.00;7.55;;;-3.30;99.90;;;;;;5075307;28;20032;-88
2023/04/05 03:23:28;;;;;;;14.27;7.90;;;-3.30;99.90;;;;;;5074298;28;20119;-88
2023/04/05 03:26:00;;;;;;;12.05;6.97;;;-3.40;99.90;;;;;;5057512;28;20016;-88
2023/04/05 03:28:33;;;;;;;13.85;7.72;;;-3.40;99.90;;;;;;5057960;28;20028;-88
2023/04/05 03:31:02;;;;;;;12.88;7.25;;;-3.40;99.90;;;;;;5057630;28;20085;-88
2023/04/05 03:33:28;;;;;;;14.07;8.18;;;-3.30;99.90;;;;;;5057611;28;20036;-88
2023/04/05 03:35:54;;;;;;;14.88;7.88;;;-3.30;99.90;;;;;;5058251;28;20111;-88
2023/04/05 03:38:20;;;;;;;16.42;8.30;;;-3.30;99.90;;;;;;5057765;28;20127;-88
2023/04/05 03:41:06;;;;;;;14.30;8.40;;;-3.30;99.90;;;;;;5061033;28;20071;-87
2023/04/05 03:43:33;;;;;;;17.95;7.43;;;-3.30;99.90;;;;;;5058816;28;20798;-87
2023/04/05 03:46:00;;;;;;;33.97;13.32;;;-3.30;99.90;;;;;;5059028;28;20024;-87
2023/04/05 03:48:28;;;;;;;29.95;12.45;;;-3.40;99.90;;;;;;5058415;28;20056;-88
2023/04/05 03:50:53;;;;;;;20.42;9.90;;;-3.50;99.90;;;;;;5075706;28;20039;-87
2023/04/05 03:53:19;;;;;;;20.15;8.70;;;-3.50;99.90;;;;;;5074828;28;20020;-88
2023/04/05 03:55:49;;;;;;;13.00;7.93;;;-3.50;99.90;;;;;;5059176;28;20025;-86
2023/04/05 03:58:17;;;;;;;16.00;7.68;;;-3.50;99.90;;;;;;5075253;28;20028;-88
2023/04/05 04:01:02;;;;;;;13.52;8.48;;;-3.60;99.90;;;;;;5074152;28;20036;-88
2023/04/05 04:03:29;;;;;;;20.98;9.85;;;-3.50;99.90;;;;;;5056658;28;20476;-88
2023/04/05 04:05:56;;;;;;;16.83;8.05;;;-3.50;99.90;;;;;;5072841;28;20028;-88
2023/04/05 04:08:22;;;;;;;17.42;9.43;;;-3.50;99.90;;;;;;5072673;28;20187;-88
2023/04/05 04:10:49;;;;;;;16.48;8.88;;;-3.40;99.90;;;;;;5072773;28;20031;-88
2023/04/05 04:13:21;;;;;;;18.02;9.10;;;-3.40;99.90;;;;;;5057219;28;20120;-86
2023/04/05 04:15:59;;;;;;;19.52;8.98;;;-3.50;99.90;;;;;;5073300;28;20036;-87
2023/04/05 04:18:46;;;;;;;16.92;9.52;;;-3.60;99.90;;;;;;5073430;28;20028;-88
2023/04/05 04:21:24;;;;;;;41.22;8.48;;;-3.70;99.90;;;;;;5072887;28;20115;-88
2023/04/05 04:24:01;;;;;;;18.90;9.95;;;-3.70;99.90;;;;;;5088570;28;20432;-88
2023/04/05 04:26:47;;;;;;;18.60;9.48;;;-3.70;99.90;;;;;;5073162;28;20100;-88
2023/04/05 04:29:45;;;;;;;;;;;-3.80;99.90;;;;;;5073474;28;20024;-88
2023/04/05 04:32:25;;;;;;;23.42;11.20;;;-3.90;99.90;;;;;;5072934;28;19915;-88
2023/04/05 04:35:27;;;;;;;26.05;10.70;;;-4.00;99.90;;;;;;5060626;28;20028;-88
2023/04/05 04:38:04;;;;;;;16.80;10.05;;;-4.00;99.90;;;;;;5057609;28;20028;-88
2023/04/05 04:41:06;;;;;;;31.33;11.00;;;-4.00;99.90;;;;;;5070007;28;20497;-88
2023/04/05 04:43:44;;;;;;;20.77;10.27;;;-3.80;99.90;;;;;;5073400;28;20016;-88
2023/04/05 04:46:17;;;;;;;23.08;13.68;;;-3.90;99.90;;;;;;5060284;28;20069;-88
2023/04/05 04:49:04;;;;;;;24.98;11.18;;;-3.90;99.90;;;;;;5072370;28;20112;-88
2023/04/05 04:51:36;;;;;;;20.08;10.43;;;-3.90;99.90;;;;;;5089386;28;20032;-88
2023/04/05 04:54:01;;;;;;;21.30;11.85;;;-3.80;99.90;;;;;;5055869;28;20078;-88
2023/04/05 04:56:27;;;;;;;36.75;15.02;;;-3.80;99.90;;;;;;5071940;28;20024;-87
2023/04/05 04:58:55;;;;;;;28.20;13.48;;;-3.80;99.90;;;;;;5058522;28;20024;-87
2023/04/05 05:01:23;;;;;;;32.00;12.32;;;-3.70;99.90;;;;;;5074369;28;20058;-87
2023/04/05 05:03:50;;;;;;;24.35;11.38;;;-3.70;99.90;;;;;;5057504;28;20043;-87
2023/04/05 05:06:23;;;;;;;21.48;11.43;;;-3.60;99.90;;;;;;5074712;28;20021;-87
2023/04/05 05:08:49;;;;;;;20.15;10.63;;;-3.60;99.90;;;;;;5057700;28;20024;-88
2023/04/05 05:11:15;;;;;;;19.75;9.93;;;-3.60;99.90;;;;;;5058577;28;20050;-87
2023/04/05 05:13:41;;;;;;;21.75;10.82;;;-3.60;99.90;;;;;;5058149;28;20078;-87
2023/04/05 05:16:10;;;;;;;20.52;10.35;;;-3.60;99.90;;;;;;5074486;28;20036;-87
2023/04/05 05:19:01;;;;;;;22.75;10.57;;;-3.60;99.90;;;;;;5074060;28;20395;-86
2023/04/05 05:21:37;;;;;;;19.35;11.50;;;-3.60;99.90;;;;;;5058694;28;20029;-87
2023/04/05 05:24:04;;;;;;;16.67;9.90;;;-3.50;99.90;;;;;;5057825;28;20025;-87
2023/04/05 05:26:29;;;;;;;18.70;9.75;;;-3.60;99.90;;;;;;5057039;28;20037;-87
2023/04/05 05:29:01;;;;;;;42.97;19.48;;;-3.50;99.90;;;;;;5073902;28;20441;-87
2023/04/05 05:31:29;;;;;;;78.90;30.45;;;-3.50;99.90;;;;;;5074321;28;20036;-87
2023/04/05 05:33:55;;;;;;;58.67;24.73;;;-3.50;99.90;;;;;;5057618;28;20033;-87
2023/04/05 05:36:22;;;;;;;30.52;16.10;;;-3.50;99.90;;;;;;5056709;28;20028;-87
2023/04/05 05:38:48;;;;;;;23.52;11.60;;;-3.40;99.90;;;;;;5057310;28;20040;-88
2023/04/05 05:41:13;;;;;;;64.68;30.08;;;-3.20;99.90;;;;;;5057334;28;20048;-87
2023/04/05 05:43:42;;;;;;;96.85;36.05;;;-3.10;99.90;;;;;;5057579;28;20017;-87
2023/04/05 05:46:08;;;;;;;57.20;23.90;;;-3.10;99.90;;;;;;5056593;28;20024;-87
2023/04/05 05:48:35;;;;;;;25.67;14.65;;;-3.10;99.90;;;;;;5058399;28;20028;-87
2023/04/05 05:51:01;;;;;;;24.80;12.77;;;-3.10;99.90;;;;;;5058285;28;20028;-87
2023/04/05 05:53:27;;;;;;;19.27;11.30;;;-3.00;99.90;;;;;;5066461;28;20541;-87
2023/04/05 05:55:52;;;;;;;21.23;11.90;;;-2.90;99.90;;;;;;5057352;28;20377;-88
2023/04/05 05:58:18;;;;;;;18.45;10.68;;;-2.90;99.90;;;;;;5074259;28;20106;-87
2023/04/05 06:00:45;;;;;;;16.50;9.45;;;-2.80;99.90;;;;;;5073950;28;20501;-87
2023/04/05 06:03:12;;;;;;;16.17;9.52;;;-2.70;99.90;;;;;;5055265;28;20427;-86
2023/04/05 06:05:37;;;;;;;23.77;10.52;;;-2.70;99.90;;;;;;5057694;28;20024;-87
2023/04/05 06:08:03;;;;;;;19.90;10.32;;;-2.60;99.90;;;;;;5074683;28;20162;-87
2023/04/05 06:10:30;;;;;;;17.33;9.75;;;-2.50;99.90;;;;;;5057455;28;20984;-87
2023/04/05 06:12:55;;;;;;;17.20;8.93;;;-2.30;99.90;;;;;;5056982;28;20048;-87
2023/04/05 06:15:21;;;;;;;18.98;8.55;;;-2.10;99.90;;;;;;5058022;28;20075;-87
2023/04/05 06:18:05;;;;;;;34.78;14.80;;;-2.00;99.90;;;;;;5057385;28;20032;-87
2023/04/05 06:20:31;;;;;;;18.00;9.40;;;-1.80;99.90;;;;;;5056275;28;20418;-87
2023/04/05 06:22:56;;;;;;;17.67;8.75;;;-1.60;99.90;;;;;;5072677;28;20040;-88
2023/04/05 06:25:22;;;;;;;16.55;9.82;;;-1.50;99.90;;;;;;5072932;28;20040;-88
2023/04/05 06:27:48;;;;;;;15.88;9.63;;;-1.40;99.90;;;;;;5056910;28;20025;-88
2023/04/05 06:30:14;;;;;;;17.90;11.00;;;-1.30;99.90;;;;;;5073732;28;20040;-88
2023/04/05 06:32:40;;;;;;;16.70;10.52;;;-1.30;99.90;;;;;;5060775;28;20020;-88
2023/04/05 06:35:06;;;;;;;22.05;11.00;;;-1.30;99.90;;;;;;5060077;28;20123;-88
2023/04/05 06:37:32;;;;;;;22.63;9.50;;;-1.20;99.90;;;;;;5059985;28;20111;-88
2023/04/05 06:39:58;;;;;;;22.33;9.48;;;-1.10;99.90;;;;;;5060416;28;20063;-88
2023/04/05 06:42:55;;;;;;;12.65;8.18;;;-1.00;99.90;;;;;;5076163;28;20037;-87
2023/04/05 06:45:26;;;;;;;16.83;8.32;;;-0.80;99.90;;;;;;5058870;28;20428;-88
2023/04/05 06:47:52;;;;;;;17.17;8.02;;;-0.60;99.90;;;;;;5060134;28;20020;-88
2023/04/05 06:50:17;;;;;;;17.80;8.02;;;-0.60;99.90;;;;;;5075872;28;20024;-88
2023/04/05 06:52:43;;;;;;;13.68;8.90;;;-0.50;99.90;;;;;;5075354;28;20035;-87
2023/04/05 06:55:09;;;;;;;13.80;7.35;;;-0.30;99.90;;;;;;5077771;28;20025;-88
2023/04/05 06:57:35;;;;;;;18.35;9.65;;;-0.10;99.90;;;;;;5058854;28;20047;-88
2023/04/05 07:00:01;;;;;;;18.70;9.40;;;0.10;99.90;;;;;;5058820;28;20027;-88
2023/04/05 07:02:26;;;;;;;12.52;7.75;;;0.10;99.90;;;;;;5059069;28;20119;-88
2023/04/05 07:04:52;;;;;;;12.75;6.95;;;0.30;99.90;;;;;;5059511;28;20047;-87
2023/04/05 07:07:18;;;;;;;16.45;7.43;;;0.40;99.90;;;;;;5058583;28;20048;-88
2023/04/05 07:09:44;;;;;;;16.80;8.13;;;0.40;99.90;;;;;;5059003;28;20024;-87
2023/04/05 07:12:09;;;;;;;15.30;7.00;;;0.50;99.90;;;;;;5058142;28;20052;-87
2023/04/05 07:14:37;;;;;;;17.33;7.47;;;0.70;99.90;;;;;;5085677;28;20398;-87
2023/04/05 07:17:07;;;;;;;13.90;7.57;;;0.70;99.90;;;;;;5059203;28;20040;-88
2023/04/05 07:19:33;;;;;;;11.27;6.60;;;0.80;99.90;;;;;;5073917;28;20067;-87
2023/04/05 07:22:00;;;;;;;15.48;6.90;;;1.00;99.90;;;;;;5057395;28;20793;-88
2023/04/05 07:24:25;;;;;;;13.93;7.00;;;1.10;99.90;;;;;;5074905;28;20020;-88
2023/04/05 07:26:51;;;;;;;13.95;7.35;;;1.20;99.90;;;;;;5075523;28;20048;-87
2023/04/05 07:29:17;;;;;;;15.90;7.88;;;1.30;99.90;;;;;;5057453;28;20085;-88
2023/04/05 07:31:43;;;;;;;10.75;7.10;;;1.30;99.90;;;;;;5064763;28;20031;-88
2023/04/05 07:34:09;;;;;;;12.60;7.10;;;1.50;99.90;;;;;;5058936;28;20487;-88
2023/04/05 07:36:35;;;;;;;17.30;7.68;;;1.50;99.90;;;;;;5073388;28;20437;-88
2023/04/05 07:39:01;;;;;;;14.18;6.60;;;1.50;99.90;;;;;;5057366;28;20029;-88
2023/04/05 07:41:31;;;;;;;10.48;6.28;;;1.70;99.90;;;;;;5073098;28;20040;-87
2023/04/05 07:43:57;;;;;;;14.27;6.65;;;1.70;99.90;;;;;;5056790;28;20119;-87
2023/04/05 07:46:23;;;;;;;14.52;7.60;;;1.80;99.90;;;;;;5056861;28;20035;-88
2023/04/05 07:48:49;;;;;;;13.05;6.28;;;1.80;99.90;;;;;;5056268;28;20016;-88
2023/04/05 07:51:15;;;;;;;10.00;6.38;;;2.00;99.90;;;;;;5073082;28;20028;-88
2023/04/05 07:53:41;;;;;;;9.65;5.85;;;2.10;99.90;;;;;;5057021;28;20379;-87
2023/04/05 07:56:14;;;;;;;11.27;6.03;;;2.20;99.90;;;;;;5056288;28;20040;-88
2023/04/05 07:58:40;;;;;;;9.88;6.00;;;2.30;99.90;;;;;;5072715;28;20029;-88
2023/04/05 08:01:08;;;;;;;14.20;6.53;;;2.40;99.90;;;;;;5073062;28;20064;-87
2023/04/05 08:03:35;;;;;;;9.50;6.15;;;2.50;99.90;;;;;;5074271;28;20024;-87
2023/04/05 08:06:17;;;;;;;12.82;6.20;;;2.50;99.90;;;;;;5056494;28;20017;-87
2023/04/05 08:08:44;;;;;;;12.93;6.85;;;2.60;99.90;;;;;;5056708;28;20043;-88
2023/04/05 08:11:10;;;;;;;14.50;6.05;;;2.70;99.90;;;;;;5090106;28;20151;-87
2023/04/05 08:13:39;;;;;;;11.63;6.57;;;2.70;99.90;;;;;;5073196;28;20086;-88
2023/04/05 08:16:26;;;;;;;14.20;7.60;;;2.80;99.90;;;;;;5073058;28;20040;-87
2023/04/05 08:18:52;;;;;;;10.38;5.93;;;2.90;99.90;;;;;;5074873;28;20020;-87
2023/04/05 08:21:18;;;;;;;11.13;6.65;;;2.90;99.90;;;;;;5073458;28;20048;-88
2023/04/05 08:23:43;;;;;;;13.02;7.00;;;2.90;99.90;;;;;;5056824;28;20438;-87
2023/04/05 08:26:09;;;;;;;17.02;7.00;;;2.90;99.90;;;;;;5055934;28;20032;-87
2023/04/05 08:28:35;;;;;;;13.10;6.20;;;3.00;99.90;;;;;;5055851;28;20442;-88
2023/04/05 08:31:01;;;;;;;10.57;6.47;;;3.20;99.90;;;;;;5072161;28;20060;-87
2023/04/05 08:33:29;;;;;;;12.82;6.07;;;3.20;99.90;;;;;;5055489;28;20596;-87
2023/04/05 08:36:05;;;;;;;12.45;6.88;;;3.30;99.90;;;;;;5056035;28;20021;-86
2023/04/05 08:38:31;;;;;;;12.45;6.82;;;3.40;99.90;;;;;;5072008;28;20035;-87
2023/04/05 08:41:13;;;;;;;15.68;7.80;;;3.60;99.90;;;;;;5056807;28;20028;-87
2023/04/05 08:44:01;;;;;;;14.48;6.95;;;3.70;99.90;;;;;;5073117;28;20032;-88
2023/04/05 08:46:30;;;;;;;12.32;7.22;;;3.80;99.90;;;;;;5058056;28;20120;-89
2023/04/05 08:48:57;;;;;;;13.30;7.18;;;4.00;99.90;;;;;;5059828;28;20379;-87
2023/04/05 08:51:25;;;;;;;13.00;7.45;;;4.20;99.90;;;;;;5073932;28;20042;-88
2023/04/05 08:53:51;;;;;;;10.63;6.90;;;4.50;99.90;;;;;;5055246;28;20695;-88
2023/04/05 08:56:37;;;;;;;11.52;7.43;;;6.30;99.90;;;;;;5072478;28;20757;-87
2023/04/05 08:59:09;;;;;;;8.73;5.93;;;8.70;96.40;;;;;;5072076;28;20487;-88
2023/04/05 09:01:42;;;;;;;8.50;5.95;;;10.10;88.40;;;;;;5072576;28;20067;-88
2023/04/05 09:04:45;;;;;;;11.10;6.53;;;10.70;78.70;;;;;;5055341;28;20036;-88
2023/04/05 09:07:13;;;;;;;12.40;7.78;;;9.70;77.50;;;;;;5072857;28;20111;-88
2023/04/05 09:09:43;;;;;;;15.77;6.93;;;9.20;77.10;;;;;;5085056;28;20037;-88
2023/04/05 09:12:09;;;;;;;12.23;7.07;;;9.60;77.50;;;;;;5055345;28;20058;-88
2023/04/05 09:14:37;;;;;;;11.73;6.25;;;10.90;72.30;;;;;;5089482;28;20037;-89
2023/04/05 09:17:08;;;;;;;8.40;5.97;;;12.10;69.40;;;;;;5069985;28;20021;-87
2023/04/05 09:19:54;;;;;;;8.75;5.57;;;12.20;69.20;;;;;;5074964;28;20103;-89
2023/04/05 09:22:22;;;;;;;7.35;5.90;;;13.10;65.20;;;;;;5086631;28;20048;-89
2023/04/05 09:24:47;;;;;;;9.68;6.88;;;12.60;63.70;;;;;;5062691;28;20052;-89
2023/04/05 09:27:18;;;;;;;10.05;6.75;;;11.50;62.70;;;;;;5074113;28;20246;-87
2023/04/05 09:29:49;;;;;;;13.20;6.75;;;9.90;66.60;;;;;;5073503;28;20111;-87
2023/04/05 09:32:18;;;;;;;13.98;8.00;;;8.80;71.60;;;;;;5090049;28;20031;-88
2023/04/05 09:34:44;;;;;;;17.70;8.45;;;8.20;73.00;;;;;;5083261;28;20064;-88
2023/04/05 09:37:19;;;;;;;10.32;7.15;;;8.80;74.60;;;;;;5058876;28;20036;-88
2023/04/05 09:39:48;;;;;;;10.85;6.47;;;9.20;76.50;;;;;;5073186;28;20036;-88
2023/04/05 09:42:15;;;;;;;11.18;6.45;;;9.20;72.80;;;;;;5055429;28;20035;-89
2023/04/05 09:44:50;;;;;;;11.10;7.25;;;9.70;75.20;;;;;;5056315;28;20040;-89
2023/04/05 09:47:17;;;;;;;10.95;7.68;;;9.90;70.80;;;;;;5066753;28;20025;-88
2023/04/05 09:49:43;;;;;;;10.93;7.32;;;9.50;72.80;;;;;;5073865;28;20535;-89
2023/04/05 09:52:27;;;;;;;19.52;8.32;;;9.00;71.20;;;;;;5073629;28;20104;-88
2023/04/05 09:54:55;;;;;;;11.75;7.53;;;8.70;74.70;;;;;;5065442;28;20031;-89
2023/04/05 09:57:29;;;;;;;10.88;7.65;;;9.60;74.20;;;;;;5073498;28;20069;-89
2023/04/05 09:59:55;;;;;;;14.05;7.30;;;9.50;70.50;;;;;;5056230;28;20433;-89
2023/04/05 10:02:21;;;;;;;9.73;7.00;;;9.90;72.20;;;;;;5055620;28;20078;-89
2023/04/05 10:04:48;;;;;;;10.63;7.47;;;10.20;70.60;;;;;;5072304;28;20035;-88
2023/04/05 10:07:15;;;;;;;10.35;7.13;;;10.90;69.50;;;;;;5059957;28;20028;-88
2023/04/05 10:09:43;;;;;;;14.10;7.78;;;10.00;68.50;;;;;;5077225;28;20040;-88
2023/04/05 10:12:12;;;;;;;14.00;8.07;;;9.50;70.10;;;;;;5061752;28;20028;-88
2023/04/05 10:14:38;;;;;;;13.30;7.45;;;10.00;67.10;;;;;;5077234;28;20055;-89
2023/04/05 10:17:15;;;;;;;11.10;8.10;;;10.20;70.20;;;;;;5062056;28;20024;-87
2023/04/05 10:19:56;;;;;;;9.57;6.97;;;10.00;70.70;;;;;;5076206;28;20082;-89
2023/04/05 10:22:27;;;;;;;11.05;7.20;;;10.30;69.40;;;;;;5072339;28;20028;-89
2023/04/05 10:25:03;;;;;;;14.87;7.83;;;10.90;70.10;;;;;;5077512;28;20059;-89
2023/04/05 10:27:40;;;;;;;10.25;7.63;;;11.20;66.30;;;;;;5078046;28;20059;-88
2023/04/05 10:30:10;;;;;;;11.88;7.50;;;10.00;66.60;;;;;;5076027;28;20020;-89
2023/04/05 10:33:02;;;;;;;15.98;7.70;;;10.40;68.00;;;;;;5075870;28;20035;-88
2023/04/05 10:35:42;;;;;;;12.45;7.80;;;10.80;66.10;;;;;;5073676;28;20066;-89
2023/04/05 10:38:19;;;;;;;10.18;7.85;;;11.20;67.70;;;;;;5060611;28;20033;-87
2023/04/05 10:40:49;;;;;;;9.95;7.10;;;11.60;65.30;;;;;;5076032;28;20396;-88
2023/04/05 10:43:22;;;;;;;9.85;7.60;;;11.90;64.00;;;;;;5059606;28;20435;-88
2023/04/05 10:45:52;;;;;;;12.57;7.45;;;12.10;62.60;;;;;;5076587;28;20811;-88
2023/04/05 10:48:46;;;;;;;12.77;7.78;;;12.10;65.90;;;;;;5076790;28;20115;-88
2023/04/05 10:51:14;;;;;;;12.35;7.63;;;11.50;64.40;;;;;;5072170;28;20028;-88
2023/04/05 10:53:40;;;;;;;13.20;8.30;;;11.60;63.00;;;;;;5097510;28;20024;-88
2023/04/05 10:56:07;;;;;;;11.07;6.97;;;12.20;62.40;;;;;;5059967;28;20036;-89
2023/04/05 10:58:35;;;;;;;17.35;8.18;;;12.40;60.20;;;;;;5060720;28;20029;-89
2023/04/05 11:01:03;;;;;;;11.63;7.35;;;13.10;60.40;;;;;;5076798;28;20112;-89
2023/04/05 11:03:50;;;;;;;13.50;7.43;;;12.70;60.10;;;;;;5076045;28;20096;-88
2023/04/05 11:06:32;;;;;;;13.00;7.25;;;12.00;59.90;;;;;;5071674;28;20020;-89
2023/04/05 11:09:09;;;;;;;10.48;6.95;;;12.20;59.40;;;;;;5078658;28;20028;-88
2023/04/05 11:11:39;;;;;;;12.02;6.32;;;12.80;59.70;;;;;;5076111;28;20032;-89
2023/04/05 11:14:20;;;;;;;10.43;7.32;;;13.40;58.40;;;;;;5069947;28;20043;-89
2023/04/05 11:16:48;;;;;;;9.90;6.82;;;13.80;56.80;;;;;;5076726;28;20127;-87
2023/04/05 11:19:17;;;;;;;12.00;7.10;;;14.10;58.40;;;;;;5077311;28;20383;-89
2023/04/05 11:21:45;;;;;;;9.25;7.20;;;14.00;56.60;;;;;;5078374;28;20082;-89
2023/04/05 11:24:49;;;;;;;9.48;7.38;;;13.30;59.00;;;;;;5077807;28;20021;-89
2023/04/05 11:27:15;;;;;;;12.88;7.57;;;13.40;58.70;;;;;;5054191;28;20028;-89
2023/04/05 11:29:50;;;;;;;8.07;6.93;;;13.60;57.40;;;;;;5048425;28;20048;-89
2023/04/05 11:32:16;;;;;;;13.27;8.20;;;12.80;56.70;;;;;;5060170;28;20167;-88
2023/04/05 11:34:43;;;;;;;11.73;7.53;;;11.90;57.10;;;;;;5066005;28;20036;-88
2023/04/05 11:37:09;;;;;;;12.98;7.90;;;12.20;59.20;;;;;;5075975;28;20024;-88
2023/04/05 11:39:37;;;;;;;10.27;7.03;;;12.20;58.90;;;;;;5058277;28;20036;-88
2023/04/05 11:42:05;;;;;;;9.00;7.15;;;12.10;58.30;;;;;;5058187;28;20111;-88
2023/04/05 11:44:42;;;;;;;13.15;8.10;;;11.10;57.70;;;;;;5074678;28;20024;-88
2023/04/05 11:47:10;;;;;;;11.77;7.70;;;10.30;59.40;;;;;;5058830;28;20033;-88
2023/04/05 11:49:37;;;;;;;12.50;7.95;;;9.60;61.40;;;;;;5058028;28;20021;-88
2023/04/05 11:52:11;;;;;;;13.02;7.95;;;9.10;64.00;;;;;;5059855;28;20028;-89
2023/04/05 11:54:38;;;;;;;14.18;7.60;;;9.10;65.40;;;;;;5056604;28;20547;-89
2023/04/05 11:57:05;;;;;;;12.23;8.68;;;10.00;62.90;;;;;;5059215;28;20063;-88
2023/04/05 11:59:35;;;;;;;12.93;8.15;;;10.30;63.50;;;;;;5075862;28;20119;-89
2023/04/05 12:02:07;;;;;;;12.32;7.70;;;10.90;63.30;;;;;;5057944;28;20024;-88
2023/04/05 12:04:34;;;;;;;14.68;8.02;;;11.80;62.30;;;;;;5074588;28;20032;-88
2023/04/05 12:07:16;;;;;;;10.50;7.35;;;12.20;60.80;;;;;;5074202;28;20091;-88
2023/04/05 12:12:58;;;;;;;13.55;8.23;;;11.70;63.10;;;;;;5066229;28;19919;-89
2023/04/05 12:15:26;;;;;;;11.30;8.60;;;11.80;61.80;;;;;;5057814;28;20048;-88
2023/04/05 12:17:53;;;;;;;11.02;8.23;;;11.60;59.90;;;;;;5074543;28;20431;-88
2023/04/05 12:20:23;;;;;;;12.02;8.63;;;10.30;61.60;;;;;;5057721;28;20043;-88
2023/04/05 12:22:52;;;;;;;14.60;8.60;;;9.40;65.40;;;;;;5057845;28;20057;-88
2023/04/05 12:25:19;;;;;;;10.88;7.97;;;8.90;67.20;;;;;;5058240;28;20119;-87
2023/04/05 12:27:45;;;;;;;13.20;8.43;;;8.40;68.30;;;;;;5073106;28;20033;-88
2023/04/05 12:30:19;;;;;;;11.88;8.52;;;8.70;71.90;;;;;;5057500;28;20043;-88
2023/04/05 12:32:46;;;;;;;11.68;7.57;;;9.10;69.70;;;;;;5074554;28;20024;-89
2023/04/05 12:35:14;;;;;;;13.52;8.77;;;8.80;66.30;;;;;;5068510;28;20506;-88
2023/04/05 12:37:40;;;;;;;16.52;8.88;;;8.40;68.00;;;;;;5073480;28;20533;-88
2023/04/05 12:40:06;;;;;;;12.27;8.95;;;8.30;70.30;;;;;;5091928;28;20033;-86
2023/04/05 12:42:36;;;;;;;11.55;7.80;;;8.10;68.60;;;;;;5072997;28;20045;-87
2023/04/05 12:45:10;;;;;;;13.73;7.93;;;8.10;67.50;;;;;;5056689;28;20031;-87
2023/04/05 12:47:56;;;;;;;12.88;7.40;;;8.30;68.50;;;;;;5056996;28;20035;-87
2023/04/05 12:50:30;;;;;;;20.70;8.85;;;8.40;67.60;;;;;;5057572;28;20033;-87
2023/04/05 12:53:00;;;;;;;11.75;7.13;;;8.30;68.20;;;;;;5056919;28;20020;-87
2023/04/05 12:55:28;;;;;;;14.40;8.07;;;8.20;66.70;;;;;;5056910;28;20036;-87
2023/04/05 12:57:58;;;;;;;12.02;7.65;;;8.00;67.90;;;;;;5074461;28;20357;-87
2023/04/05 13:00:26;;;;;;;12.35;7.25;;;8.00;67.60;;;;;;5057274;28;20035;-88